Aeroporto :
LOGIN :

Iscrizione | Disclaimer

   EN    FR    IT 

 










Sommario :    VFR   VFR Marginale   IFR   IFR Intensivo   IFR Molto Intensivo
Visibilità : 
Base nubi : 
>= 8 km
>= 3000ft
5 / 8 km
1000 / 3000 ft
1500m / 5 km
500 / 1000 ft
800 / 1500m
200 / 500 ft
< 800m
< 200 ft
Simboli :   Temporali  Nebbia  Neve Forte  Precipitazioni Forti  Vento > 20 kt
SIGMETs :   Varie  Temporali  Ghiacco  Turbolenza  Onda orograficha  Ceneri Vulcaniche






- Altitudine del aeroporto : 17 ft
- Codice IATA : CPH


EKCH - København - Kastrup (Copenhagen)

ULTIMO METAR :
  • 281220Z AUTO 36007KT 9999 NCD 08/02 Q1021 NOSIG

METARs OBSOLETI :
  • 281150Z AUTO 36006KT 9999 FEW029/// 08/M02 Q1021 NOSIG
  • 281120Z AUTO 03005KT 350V050 9999 NCD 08/M01 Q1021 NOSIG
  • 281050Z AUTO 03005KT 9999 NCD 08/M01 Q1021 NOSIG
  • 281020Z AUTO 04005KT 9999 NCD 09/M01 Q1022 NOSIG
  • 280950Z AUTO 02006KT 9999 NCD 08/M01 Q1022 NOSIG

TAF TAF EKCH
Valido dal 28 a 12 ore il 29 a 12 ore UTC


281106Z 2812/2912 02008KT 9999 SCT020
TEMPO 2815/2818 BKN012
BECMG 2821/2823 03018G28KT 2500 RASN BKN010
TEMPO 2823/2903 6000 -SNRA BKN015
BECMG 2903/2905 9999 NSW FEW020



MetMap, La meteo Aeronautica in un colpo d'occhio ! - Copyright ORBIFLY Dicembre 2007 - Disclaimer

ORBIFLY MET'MAP TEAM :

Programmazione e sviluppo : Alexandra Zaïnal
Concezione : Baudouin d'Aumeries
Aiuto per la programmazione : Marc-Olivier Méhu
Supporto tecnico e logistico : Manuel Goepfert
Aiuto per la traduzione : Arnaldo La Scala

Contatto : metmap@orbifly.com




FONTI E CREDITI :

   NOAA